sensor_id;sensor_type;location;lat;lon;timestamp;P1;durP1;ratioP1;P2;durP2;ratioP2
18899;SDS011;9582;52.018;6.306;2023-07-09T00:00:12;12.40;;;9.95;;
18899;SDS011;9582;52.018;6.306;2023-07-09T00:02:40;10.73;;;9.10;;
18899;SDS011;9582;52.018;6.306;2023-07-09T00:05:09;11.00;;;8.82;;
18899;SDS011;9582;52.018;6.306;2023-07-09T00:07:38;9.55;;;8.55;;
18899;SDS011;9582;52.018;6.306;2023-07-09T00:10:08;10.07;;;8.63;;
18899;SDS011;9582;52.018;6.306;2023-07-09T00:12:40;10.38;;;8.75;;
18899;SDS011;9582;52.018;6.306;2023-07-09T00:15:09;10.00;;;8.95;;
18899;SDS011;9582;52.018;6.306;2023-07-09T00:17:36;10.35;;;8.55;;
18899;SDS011;9582;52.018;6.306;2023-07-09T00:20:05;10.75;;;8.00;;
18899;SDS011;9582;52.018;6.306;2023-07-09T00:22:38;11.35;;;8.50;;
18899;SDS011;9582;52.018;6.306;2023-07-09T00:25:05;9.73;;;8.38;;
18899;SDS011;9582;52.018;6.306;2023-07-09T00:27:33;10.38;;;8.48;;
18899;SDS011;9582;52.018;6.306;2023-07-09T00:30:01;10.27;;;7.93;;
18899;SDS011;9582;52.018;6.306;2023-07-09T00:32:30;11.27;;;8.75;;
18899;SDS011;9582;52.018;6.306;2023-07-09T00:34:58;11.38;;;8.52;;
18899;SDS011;9582;52.018;6.306;2023-07-09T00:37:25;9.82;;;8.27;;
18899;SDS011;9582;52.018;6.306;2023-07-09T00:39:52;9.85;;;8.55;;
18899;SDS011;9582;52.018;6.306;2023-07-09T00:42:19;10.48;;;8.35;;
18899;SDS011;9582;52.018;6.306;2023-07-09T00:44:50;11.65;;;8.43;;
18899;SDS011;9582;52.018;6.306;2023-07-09T00:47:19;10.57;;;8.73;;
18899;SDS011;9582;52.018;6.306;2023-07-09T00:49:56;15.55;;;9.45;;
18899;SDS011;9582;52.018;6.306;2023-07-09T00:52:31;11.35;;;9.35;;
18899;SDS011;9582;52.018;6.306;2023-07-09T00:55:03;9.63;;;8.63;;
18899;SDS011;9582;52.018;6.306;2023-07-09T00:57:34;9.82;;;8.48;;
18899;SDS011;9582;52.018;6.306;2023-07-09T01:00:04;9.50;;;7.82;;
18899;SDS011;9582;52.018;6.306;2023-07-09T01:02:35;8.65;;;7.75;;
18899;SDS011;9582;52.018;6.306;2023-07-09T01:05:04;9.57;;;7.38;;
18899;SDS011;9582;52.018;6.306;2023-07-09T01:07:31;10.23;;;7.97;;
18899;SDS011;9582;52.018;6.306;2023-07-09T01:09:58;10.50;;;8.23;;
18899;SDS011;9582;52.018;6.306;2023-07-09T01:12:24;9.32;;;7.78;;
18899;SDS011;9582;52.018;6.306;2023-07-09T01:14:52;11.10;;;7.82;;
18899;SDS011;9582;52.018;6.306;2023-07-09T01:17:25;9.07;;;8.18;;
18899;SDS011;9582;52.018;6.306;2023-07-09T01:19:53;11.07;;;8.25;;
18899;SDS011;9582;52.018;6.306;2023-07-09T01:22:23;8.70;;;7.75;;
18899;SDS011;9582;52.018;6.306;2023-07-09T01:24:51;11.90;;;7.85;;
18899;SDS011;9582;52.018;6.306;2023-07-09T01:27:21;9.75;;;7.70;;
18899;SDS011;9582;52.018;6.306;2023-07-09T01:29:49;8.65;;;7.40;;
18899;SDS011;9582;52.018;6.306;2023-07-09T01:32:16;9.80;;;7.75;;
18899;SDS011;9582;52.018;6.306;2023-07-09T01:34:45;9.18;;;7.22;;
18899;SDS011;9582;52.018;6.306;2023-07-09T01:37:13;9.15;;;7.38;;
18899;SDS011;9582;52.018;6.306;2023-07-09T01:39:41;12.70;;;7.78;;
18899;SDS011;9582;52.018;6.306;2023-07-09T01:42:08;11.23;;;7.85;;
18899;SDS011;9582;52.018;6.306;2023-07-09T01:44:34;8.45;;;7.57;;
18899;SDS011;9582;52.018;6.306;2023-07-09T01:47:03;11.60;;;7.78;;
18899;SDS011;9582;52.018;6.306;2023-07-09T01:49:31;12.00;;;7.85;;
18899;SDS011;9582;52.018;6.306;2023-07-09T01:51:59;9.90;;;7.93;;
18899;SDS011;9582;52.018;6.306;2023-07-09T01:54:28;10.32;;;7.93;;
18899;SDS011;9582;52.018;6.306;2023-07-09T01:57:13;10.65;;;8.40;;
18899;SDS011;9582;52.018;6.306;2023-07-09T01:59:41;10.48;;;8.35;;
18899;SDS011;9582;52.018;6.306;2023-07-09T02:02:09;12.38;;;8.60;;
18899;SDS011;9582;52.018;6.306;2023-07-09T02:04:44;11.20;;;8.60;;
18899;SDS011;9582;52.018;6.306;2023-07-09T02:07:11;11.73;;;8.52;;
18899;SDS011;9582;52.018;6.306;2023-07-09T02:09:38;9.93;;;7.95;;
18899;SDS011;9582;52.018;6.306;2023-07-09T02:12:07;14.18;;;9.20;;
18899;SDS011;9582;52.018;6.306;2023-07-09T02:14:34;10.45;;;8.98;;
18899;SDS011;9582;52.018;6.306;2023-07-09T02:17:01;11.27;;;8.75;;
18899;SDS011;9582;52.018;6.306;2023-07-09T02:19:27;12.18;;;9.10;;
18899;SDS011;9582;52.018;6.306;2023-07-09T02:21:54;12.35;;;9.10;;
18899;SDS011;9582;52.018;6.306;2023-07-09T02:24:21;10.15;;;9.02;;
18899;SDS011;9582;52.018;6.306;2023-07-09T02:26:49;8.90;;;8.00;;
18899;SDS011;9582;52.018;6.306;2023-07-09T02:29:17;9.13;;;8.20;;
18899;SDS011;9582;52.018;6.306;2023-07-09T02:31:44;10.10;;;8.60;;
18899;SDS011;9582;52.018;6.306;2023-07-09T02:34:10;11.60;;;9.32;;
18899;SDS011;9582;52.018;6.306;2023-07-09T02:36:37;10.90;;;8.95;;
18899;SDS011;9582;52.018;6.306;2023-07-09T02:39:08;11.48;;;8.63;;
18899;SDS011;9582;52.018;6.306;2023-07-09T02:41:34;9.93;;;8.35;;
18899;SDS011;9582;52.018;6.306;2023-07-09T02:44:01;10.20;;;8.95;;
18899;SDS011;9582;52.018;6.306;2023-07-09T02:46:28;10.30;;;9.20;;
18899;SDS011;9582;52.018;6.306;2023-07-09T02:48:55;10.35;;;9.35;;
18899;SDS011;9582;52.018;6.306;2023-07-09T02:51:23;11.65;;;9.07;;
18899;SDS011;9582;52.018;6.306;2023-07-09T02:53:49;9.98;;;8.93;;
18899;SDS011;9582;52.018;6.306;2023-07-09T02:56:16;12.23;;;9.30;;
18899;SDS011;9582;52.018;6.306;2023-07-09T02:58:42;9.93;;;8.93;;
18899;SDS011;9582;52.018;6.306;2023-07-09T03:01:08;10.68;;;9.13;;
18899;SDS011;9582;52.018;6.306;2023-07-09T03:03:36;10.45;;;9.27;;
18899;SDS011;9582;52.018;6.306;2023-07-09T03:06:03;9.95;;;8.93;;
18899;SDS011;9582;52.018;6.306;2023-07-09T03:08:30;11.00;;;9.90;;
18899;SDS011;9582;52.018;6.306;2023-07-09T03:10:56;12.55;;;9.15;;
18899;SDS011;9582;52.018;6.306;2023-07-09T03:13:23;12.13;;;9.27;;
18899;SDS011;9582;52.018;6.306;2023-07-09T03:15:55;11.73;;;9.18;;
18899;SDS011;9582;52.018;6.306;2023-07-09T03:18:22;11.80;;;9.82;;
18899;SDS011;9582;52.018;6.306;2023-07-09T03:20:51;11.50;;;9.95;;
18899;SDS011;9582;52.018;6.306;2023-07-09T03:23:18;12.07;;;10.10;;
18899;SDS011;9582;52.018;6.306;2023-07-09T03:25:45;12.77;;;10.68;;
18899;SDS011;9582;52.018;6.306;2023-07-09T03:28:11;10.65;;;9.55;;
18899;SDS011;9582;52.018;6.306;2023-07-09T03:30:39;10.48;;;9.35;;
18899;SDS011;9582;52.018;6.306;2023-07-09T03:33:07;11.07;;;9.50;;
18899;SDS011;9582;52.018;6.306;2023-07-09T03:35:33;11.05;;;9.82;;
18899;SDS011;9582;52.018;6.306;2023-07-09T03:38:02;14.05;;;9.73;;
18899;SDS011;9582;52.018;6.306;2023-07-09T03:40:29;11.15;;;9.80;;
18899;SDS011;9582;52.018;6.306;2023-07-09T03:42:55;11.35;;;9.98;;
18899;SDS011;9582;52.018;6.306;2023-07-09T03:45:22;12.25;;;10.27;;
18899;SDS011;9582;52.018;6.306;2023-07-09T03:47:48;11.73;;;9.15;;
18899;SDS011;9582;52.018;6.306;2023-07-09T03:50:15;11.38;;;10.02;;
18899;SDS011;9582;52.018;6.306;2023-07-09T03:52:42;11.88;;;9.45;;
18899;SDS011;9582;52.018;6.306;2023-07-09T03:55:10;11.43;;;10.23;;
18899;SDS011;9582;52.018;6.306;2023-07-09T03:57:36;12.10;;;10.80;;
18899;SDS011;9582;52.018;6.306;2023-07-09T04:00:03;13.00;;;10.52;;
18899;SDS011;9582;52.018;6.306;2023-07-09T04:02:40;13.70;;;10.15;;
18899;SDS011;9582;52.018;6.306;2023-07-09T04:05:08;12.80;;;10.90;;
18899;SDS011;9582;52.018;6.306;2023-07-09T04:07:35;13.43;;;10.48;;
18899;SDS011;9582;52.018;6.306;2023-07-09T04:10:02;14.70;;;10.75;;
18899;SDS011;9582;52.018;6.306;2023-07-09T04:12:31;12.10;;;10.52;;
18899;SDS011;9582;52.018;6.306;2023-07-09T04:14:57;13.07;;;11.68;;
18899;SDS011;9582;52.018;6.306;2023-07-09T04:17:24;13.75;;;10.82;;
18899;SDS011;9582;52.018;6.306;2023-07-09T04:19:50;16.92;;;10.88;;
18899;SDS011;9582;52.018;6.306;2023-07-09T04:22:17;11.13;;;10.02;;
18899;SDS011;9582;52.018;6.306;2023-07-09T04:24:44;14.48;;;11.23;;
18899;SDS011;9582;52.018;6.306;2023-07-09T04:27:10;12.05;;;10.80;;
18899;SDS011;9582;52.018;6.306;2023-07-09T04:29:40;15.93;;;11.30;;
18899;SDS011;9582;52.018;6.306;2023-07-09T04:32:07;12.85;;;10.88;;
18899;SDS011;9582;52.018;6.306;2023-07-09T04:34:37;15.95;;;11.68;;
18899;SDS011;9582;52.018;6.306;2023-07-09T04:37:05;13.05;;;11.27;;
18899;SDS011;9582;52.018;6.306;2023-07-09T04:39:32;12.40;;;11.10;;
18899;SDS011;9582;52.018;6.306;2023-07-09T04:41:58;17.25;;;11.82;;
18899;SDS011;9582;52.018;6.306;2023-07-09T04:44:25;13.90;;;10.85;;
18899;SDS011;9582;52.018;6.306;2023-07-09T04:46:53;12.82;;;10.75;;
18899;SDS011;9582;52.018;6.306;2023-07-09T04:49:19;12.30;;;10.27;;
18899;SDS011;9582;52.018;6.306;2023-07-09T04:51:46;12.95;;;10.88;;
18899;SDS011;9582;52.018;6.306;2023-07-09T04:54:12;12.20;;;10.60;;
18899;SDS011;9582;52.018;6.306;2023-07-09T04:56:40;14.70;;;9.82;;
18899;SDS011;9582;52.018;6.306;2023-07-09T04:59:09;12.48;;;10.70;;
18899;SDS011;9582;52.018;6.306;2023-07-09T05:01:35;13.13;;;10.80;;
18899;SDS011;9582;52.018;6.306;2023-07-09T05:04:03;11.57;;;10.38;;
18899;SDS011;9582;52.018;6.306;2023-07-09T05:06:32;12.25;;;10.75;;
18899;SDS011;9582;52.018;6.306;2023-07-09T05:08:58;10.85;;;9.52;;
18899;SDS011;9582;52.018;6.306;2023-07-09T05:11:25;10.40;;;9.38;;
18899;SDS011;9582;52.018;6.306;2023-07-09T05:13:51;12.80;;;10.48;;
18899;SDS011;9582;52.018;6.306;2023-07-09T05:16:18;11.45;;;9.48;;
18899;SDS011;9582;52.018;6.306;2023-07-09T05:18:45;11.85;;;10.05;;
18899;SDS011;9582;52.018;6.306;2023-07-09T05:21:13;12.68;;;10.25;;
18899;SDS011;9582;52.018;6.306;2023-07-09T05:23:39;11.35;;;10.13;;
18899;SDS011;9582;52.018;6.306;2023-07-09T05:26:06;11.70;;;10.48;;
18899;SDS011;9582;52.018;6.306;2023-07-09T05:28:32;11.25;;;9.68;;
18899;SDS011;9582;52.018;6.306;2023-07-09T05:30:59;13.27;;;9.77;;
18899;SDS011;9582;52.018;6.306;2023-07-09T05:33:25;13.48;;;9.98;;
18899;SDS011;9582;52.018;6.306;2023-07-09T05:35:52;12.35;;;9.50;;
18899;SDS011;9582;52.018;6.306;2023-07-09T05:38:20;14.52;;;10.25;;
18899;SDS011;9582;52.018;6.306;2023-07-09T05:40:46;11.45;;;9.32;;
18899;SDS011;9582;52.018;6.306;2023-07-09T05:43:13;11.65;;;9.98;;
18899;SDS011;9582;52.018;6.306;2023-07-09T05:45:40;13.73;;;11.30;;
18899;SDS011;9582;52.018;6.306;2023-07-09T05:48:07;16.05;;;10.85;;
18899;SDS011;9582;52.018;6.306;2023-07-09T05:50:34;15.45;;;10.77;;
18899;SDS011;9582;52.018;6.306;2023-07-09T05:53:01;12.02;;;10.65;;
18899;SDS011;9582;52.018;6.306;2023-07-09T05:55:28;13.13;;;10.43;;
18899;SDS011;9582;52.018;6.306;2023-07-09T05:57:55;12.57;;;10.85;;
18899;SDS011;9582;52.018;6.306;2023-07-09T06:00:21;11.98;;;10.77;;
18899;SDS011;9582;52.018;6.306;2023-07-09T06:02:48;14.05;;;11.30;;
18899;SDS011;9582;52.018;6.306;2023-07-09T06:05:15;12.52;;;10.80;;
18899;SDS011;9582;52.018;6.306;2023-07-09T06:07:42;13.38;;;11.18;;
18899;SDS011;9582;52.018;6.306;2023-07-09T06:10:08;12.98;;;10.38;;
18899;SDS011;9582;52.018;6.306;2023-07-09T06:12:36;13.93;;;9.93;;
18899;SDS011;9582;52.018;6.306;2023-07-09T06:15:04;11.43;;;10.05;;
18899;SDS011;9582;52.018;6.306;2023-07-09T06:17:31;11.82;;;10.27;;
18899;SDS011;9582;52.018;6.306;2023-07-09T06:19:57;13.50;;;10.93;;
18899;SDS011;9582;52.018;6.306;2023-07-09T06:22:24;14.43;;;11.48;;
18899;SDS011;9582;52.018;6.306;2023-07-09T06:24:50;13.05;;;11.35;;
18899;SDS011;9582;52.018;6.306;2023-07-09T06:27:17;13.07;;;10.48;;
18899;SDS011;9582;52.018;6.306;2023-07-09T06:29:45;13.07;;;9.98;;
18899;SDS011;9582;52.018;6.306;2023-07-09T06:32:11;10.63;;;8.85;;
18899;SDS011;9582;52.018;6.306;2023-07-09T06:34:38;11.30;;;9.43;;
18899;SDS011;9582;52.018;6.306;2023-07-09T06:37:04;10.15;;;9.05;;
18899;SDS011;9582;52.018;6.306;2023-07-09T06:39:31;11.07;;;9.43;;
18899;SDS011;9582;52.018;6.306;2023-07-09T06:41:57;11.23;;;9.35;;
18899;SDS011;9582;52.018;6.306;2023-07-09T06:44:48;12.35;;;10.23;;
18899;SDS011;9582;52.018;6.306;2023-07-09T06:47:14;12.43;;;9.65;;
18899;SDS011;9582;52.018;6.306;2023-07-09T06:49:41;10.88;;;8.93;;
18899;SDS011;9582;52.018;6.306;2023-07-09T06:52:07;10.63;;;9.50;;
18899;SDS011;9582;52.018;6.306;2023-07-09T06:54:34;11.40;;;9.40;;
18899;SDS011;9582;52.018;6.306;2023-07-09T06:57:00;11.95;;;9.55;;
18899;SDS011;9582;52.018;6.306;2023-07-09T06:59:27;11.32;;;9.30;;
18899;SDS011;9582;52.018;6.306;2023-07-09T07:01:54;12.98;;;9.48;;
18899;SDS011;9582;52.018;6.306;2023-07-09T07:04:21;14.48;;;9.43;;
18899;SDS011;9582;52.018;6.306;2023-07-09T07:06:47;12.65;;;9.60;;
18899;SDS011;9582;52.018;6.306;2023-07-09T07:09:14;11.32;;;8.90;;
18899;SDS011;9582;52.018;6.306;2023-07-09T07:11:41;13.00;;;9.70;;
18899;SDS011;9582;52.018;6.306;2023-07-09T07:14:07;13.60;;;9.00;;
18899;SDS011;9582;52.018;6.306;2023-07-09T07:16:34;13.10;;;9.05;;
18899;SDS011;9582;52.018;6.306;2023-07-09T07:19:01;10.20;;;9.02;;
18899;SDS011;9582;52.018;6.306;2023-07-09T07:21:28;14.07;;;9.45;;
18899;SDS011;9582;52.018;6.306;2023-07-09T07:23:55;11.18;;;9.10;;
18899;SDS011;9582;52.018;6.306;2023-07-09T07:26:21;14.40;;;9.38;;
18899;SDS011;9582;52.018;6.306;2023-07-09T07:28:48;13.38;;;9.75;;
18899;SDS011;9582;52.018;6.306;2023-07-09T07:31:16;11.18;;;9.07;;
18899;SDS011;9582;52.018;6.306;2023-07-09T07:33:43;10.05;;;8.90;;
18899;SDS011;9582;52.018;6.306;2023-07-09T07:36:11;12.05;;;9.40;;
18899;SDS011;9582;52.018;6.306;2023-07-09T07:38:38;10.02;;;8.15;;
18899;SDS011;9582;52.018;6.306;2023-07-09T07:41:05;11.90;;;9.57;;
18899;SDS011;9582;52.018;6.306;2023-07-09T07:43:33;13.45;;;9.90;;
18899;SDS011;9582;52.018;6.306;2023-07-09T07:45:59;9.77;;;8.77;;
18899;SDS011;9582;52.018;6.306;2023-07-09T07:48:26;9.98;;;8.80;;
18899;SDS011;9582;52.018;6.306;2023-07-09T07:50:57;10.27;;;9.15;;
18899;SDS011;9582;52.018;6.306;2023-07-09T07:53:26;11.73;;;9.07;;
18899;SDS011;9582;52.018;6.306;2023-07-09T07:55:54;10.52;;;9.05;;
18899;SDS011;9582;52.018;6.306;2023-07-09T07:58:21;11.48;;;8.95;;
18899;SDS011;9582;52.018;6.306;2023-07-09T08:00:48;9.75;;;8.70;;
18899;SDS011;9582;52.018;6.306;2023-07-09T08:03:15;9.85;;;8.85;;
18899;SDS011;9582;52.018;6.306;2023-07-09T08:05:42;10.15;;;8.05;;
18899;SDS011;9582;52.018;6.306;2023-07-09T08:08:08;10.52;;;8.05;;
18899;SDS011;9582;52.018;6.306;2023-07-09T08:10:37;10.13;;;8.75;;
18899;SDS011;9582;52.018;6.306;2023-07-09T08:13:03;9.63;;;8.63;;
18899;SDS011;9582;52.018;6.306;2023-07-09T08:15:30;12.98;;;8.52;;
18899;SDS011;9582;52.018;6.306;2023-07-09T08:17:57;9.00;;;7.85;;
18899;SDS011;9582;52.018;6.306;2023-07-09T08:20:23;8.93;;;7.85;;
18899;SDS011;9582;52.018;6.306;2023-07-09T08:22:50;8.48;;;7.57;;
18899;SDS011;9582;52.018;6.306;2023-07-09T08:25:16;9.00;;;7.35;;
18899;SDS011;9582;52.018;6.306;2023-07-09T08:27:44;12.18;;;8.02;;
18899;SDS011;9582;52.018;6.306;2023-07-09T08:30:11;11.07;;;8.25;;
18899;SDS011;9582;52.018;6.306;2023-07-09T08:32:38;13.38;;;7.90;;
18899;SDS011;9582;52.018;6.306;2023-07-09T08:35:04;9.70;;;8.00;;
18899;SDS011;9582;52.018;6.306;2023-07-09T08:37:31;11.77;;;7.57;;
18899;SDS011;9582;52.018;6.306;2023-07-09T08:39:57;11.10;;;8.00;;
18899;SDS011;9582;52.018;6.306;2023-07-09T08:42:26;10.10;;;7.72;;
18899;SDS011;9582;52.018;6.306;2023-07-09T08:45:03;9.93;;;7.72;;
18899;SDS011;9582;52.018;6.306;2023-07-09T08:47:42;9.10;;;7.82;;
18899;SDS011;9582;52.018;6.306;2023-07-09T08:50:19;9.02;;;7.70;;
18899;SDS011;9582;52.018;6.306;2023-07-09T08:52:50;9.73;;;7.55;;
18899;SDS011;9582;52.018;6.306;2023-07-09T08:55:20;9.80;;;8.20;;
18899;SDS011;9582;52.018;6.306;2023-07-09T08:57:48;11.20;;;7.88;;
18899;SDS011;9582;52.018;6.306;2023-07-09T09:00:21;8.20;;;7.00;;
18899;SDS011;9582;52.018;6.306;2023-07-09T09:02:55;9.82;;;7.65;;
18899;SDS011;9582;52.018;6.306;2023-07-09T09:05:24;9.18;;;7.20;;
18899;SDS011;9582;52.018;6.306;2023-07-09T09:07:55;11.23;;;8.30;;
18899;SDS011;9582;52.018;6.306;2023-07-09T09:10:28;10.55;;;8.15;;
18899;SDS011;9582;52.018;6.306;2023-07-09T09:13:01;10.30;;;7.75;;
18899;SDS011;9582;52.018;6.306;2023-07-09T09:15:37;11.15;;;7.90;;
18899;SDS011;9582;52.018;6.306;2023-07-09T09:18:20;10.18;;;6.68;;
18899;SDS011;9582;52.018;6.306;2023-07-09T09:20:55;10.70;;;7.43;;
18899;SDS011;9582;52.018;6.306;2023-07-09T09:23:25;12.38;;;9.88;;
18899;SDS011;9582;52.018;6.306;2023-07-09T09:25:58;13.00;;;8.10;;
18899;SDS011;9582;52.018;6.306;2023-07-09T09:28:28;8.93;;;7.10;;
18899;SDS011;9582;52.018;6.306;2023-07-09T09:30:55;10.02;;;7.80;;
18899;SDS011;9582;52.018;6.306;2023-07-09T09:33:22;8.50;;;7.25;;
18899;SDS011;9582;52.018;6.306;2023-07-09T09:35:49;7.97;;;7.18;;
18899;SDS011;9582;52.018;6.306;2023-07-09T09:38:17;12.68;;;7.35;;
18899;SDS011;9582;52.018;6.306;2023-07-09T09:40:49;9.65;;;7.25;;
18899;SDS011;9582;52.018;6.306;2023-07-09T09:43:17;12.60;;;7.80;;
18899;SDS011;9582;52.018;6.306;2023-07-09T09:45:47;10.73;;;7.78;;
18899;SDS011;9582;52.018;6.306;2023-07-09T09:48:17;13.35;;;8.10;;
18899;SDS011;9582;52.018;6.306;2023-07-09T09:50:45;11.15;;;7.22;;
18899;SDS011;9582;52.018;6.306;2023-07-09T09:53:16;10.52;;;7.30;;
18899;SDS011;9582;52.018;6.306;2023-07-09T09:55:46;10.70;;;7.65;;
18899;SDS011;9582;52.018;6.306;2023-07-09T09:58:14;9.75;;;7.35;;
18899;SDS011;9582;52.018;6.306;2023-07-09T10:00:46;8.70;;;7.07;;
18899;SDS011;9582;52.018;6.306;2023-07-09T10:03:16;11.73;;;7.07;;
18899;SDS011;9582;52.018;6.306;2023-07-09T10:05:43;10.60;;;7.70;;
18899;SDS011;9582;52.018;6.306;2023-07-09T10:08:13;8.80;;;7.22;;
18899;SDS011;9582;52.018;6.306;2023-07-09T10:10:44;7.57;;;6.82;;
18899;SDS011;9582;52.018;6.306;2023-07-09T10:13:14;7.93;;;7.03;;
18899;SDS011;9582;52.018;6.306;2023-07-09T10:15:51;10.45;;;7.65;;
18899;SDS011;9582;52.018;6.306;2023-07-09T10:18:31;11.48;;;7.18;;
18899;SDS011;9582;52.018;6.306;2023-07-09T10:21:10;10.05;;;6.85;;
18899;SDS011;9582;52.018;6.306;2023-07-09T10:23:44;10.15;;;7.60;;
18899;SDS011;9582;52.018;6.306;2023-07-09T10:26:26;8.45;;;6.80;;
18899;SDS011;9582;52.018;6.306;2023-07-09T10:29:00;8.50;;;7.03;;
18899;SDS011;9582;52.018;6.306;2023-07-09T10:31:47;10.98;;;7.80;;
18899;SDS011;9582;52.018;6.306;2023-07-09T10:34:28;8.95;;;6.70;;
18899;SDS011;9582;52.018;6.306;2023-07-09T10:37:04;10.32;;;6.93;;
18899;SDS011;9582;52.018;6.306;2023-07-09T10:39:44;11.23;;;6.93;;
18899;SDS011;9582;52.018;6.306;2023-07-09T10:42:16;10.25;;;7.05;;
18899;SDS011;9582;52.018;6.306;2023-07-09T10:44:50;9.35;;;6.10;;
18899;SDS011;9582;52.018;6.306;2023-07-09T10:47:25;8.60;;;7.05;;
18899;SDS011;9582;52.018;6.306;2023-07-09T10:49:59;8.95;;;7.38;;
18899;SDS011;9582;52.018;6.306;2023-07-09T10:52:28;10.60;;;7.25;;
18899;SDS011;9582;52.018;6.306;2023-07-09T10:54:59;9.38;;;6.82;;
18899;SDS011;9582;52.018;6.306;2023-07-09T10:57:44;10.25;;;7.30;;
18899;SDS011;9582;52.018;6.306;2023-07-09T11:00:14;12.05;;;7.47;;
18899;SDS011;9582;52.018;6.306;2023-07-09T11:02:43;11.45;;;7.72;;
18899;SDS011;9582;52.018;6.306;2023-07-09T11:05:13;9.70;;;7.35;;
18899;SDS011;9582;52.018;6.306;2023-07-09T11:07:40;8.27;;;6.65;;
18899;SDS011;9582;52.018;6.306;2023-07-09T11:10:14;9.43;;;6.75;;
18899;SDS011;9582;52.018;6.306;2023-07-09T11:12:51;7.20;;;6.50;;
18899;SDS011;9582;52.018;6.306;2023-07-09T11:15:25;7.60;;;5.55;;
18899;SDS011;9582;52.018;6.306;2023-07-09T11:17:57;9.57;;;5.78;;
18899;SDS011;9582;52.018;6.306;2023-07-09T11:20:27;7.70;;;5.63;;
18899;SDS011;9582;52.018;6.306;2023-07-09T11:23:01;7.50;;;5.57;;
18899;SDS011;9582;52.018;6.306;2023-07-09T11:25:30;8.13;;;5.70;;
18899;SDS011;9582;52.018;6.306;2023-07-09T11:28:06;5.80;;;5.20;;
18899;SDS011;9582;52.018;6.306;2023-07-09T11:30:45;7.90;;;6.07;;
18899;SDS011;9582;52.018;6.306;2023-07-09T11:33:16;9.35;;;6.32;;
18899;SDS011;9582;52.018;6.306;2023-07-09T11:35:47;6.85;;;5.30;;
18899;SDS011;9582;52.018;6.306;2023-07-09T11:38:16;7.63;;;5.60;;
18899;SDS011;9582;52.018;6.306;2023-07-09T11:40:45;6.57;;;5.03;;
18899;SDS011;9582;52.018;6.306;2023-07-09T11:43:24;9.13;;;5.28;;
18899;SDS011;9582;52.018;6.306;2023-07-09T11:45:52;6.65;;;5.68;;
18899;SDS011;9582;52.018;6.306;2023-07-09T11:48:24;5.82;;;4.50;;
18899;SDS011;9582;52.018;6.306;2023-07-09T11:50:54;6.45;;;4.45;;
18899;SDS011;9582;52.018;6.306;2023-07-09T11:53:26;7.32;;;4.50;;
18899;SDS011;9582;52.018;6.306;2023-07-09T11:56:00;6.28;;;4.43;;
18899;SDS011;9582;52.018;6.306;2023-07-09T11:58:26;8.57;;;5.03;;
18899;SDS011;9582;52.018;6.306;2023-07-09T12:00:53;7.45;;;4.97;;
18899;SDS011;9582;52.018;6.306;2023-07-09T12:03:23;5.53;;;4.57;;
18899;SDS011;9582;52.018;6.306;2023-07-09T12:05:54;7.30;;;5.10;;
18899;SDS011;9582;52.018;6.306;2023-07-09T12:08:22;8.93;;;5.18;;
18899;SDS011;9582;52.018;6.306;2023-07-09T12:10:53;6.07;;;4.72;;
18899;SDS011;9582;52.018;6.306;2023-07-09T12:13:20;6.57;;;4.78;;
18899;SDS011;9582;52.018;6.306;2023-07-09T12:15:46;6.43;;;4.60;;
18899;SDS011;9582;52.018;6.306;2023-07-09T12:18:13;8.23;;;4.93;;
18899;SDS011;9582;52.018;6.306;2023-07-09T12:20:41;6.32;;;4.72;;
18899;SDS011;9582;52.018;6.306;2023-07-09T12:23:18;6.30;;;4.82;;
18899;SDS011;9582;52.018;6.306;2023-07-09T12:25:48;5.35;;;4.82;;
18899;SDS011;9582;52.018;6.306;2023-07-09T12:28:16;5.53;;;4.65;;
18899;SDS011;9582;52.018;6.306;2023-07-09T12:30:46;9.18;;;4.35;;
18899;SDS011;9582;52.018;6.306;2023-07-09T12:33:15;5.30;;;4.80;;
18899;SDS011;9582;52.018;6.306;2023-07-09T12:35:43;7.65;;;4.65;;
18899;SDS011;9582;52.018;6.306;2023-07-09T12:38:15;6.00;;;4.75;;
18899;SDS011;9582;52.018;6.306;2023-07-09T12:40:46;7.13;;;4.60;;
18899;SDS011;9582;52.018;6.306;2023-07-09T12:43:13;6.50;;;4.47;;
18899;SDS011;9582;52.018;6.306;2023-07-09T12:45:43;6.78;;;4.70;;
18899;SDS011;9582;52.018;6.306;2023-07-09T12:48:10;10.30;;;4.35;;
18899;SDS011;9582;52.018;6.306;2023-07-09T12:50:39;6.00;;;4.50;;
18899;SDS011;9582;52.018;6.306;2023-07-09T12:53:11;5.90;;;4.70;;
18899;SDS011;9582;52.018;6.306;2023-07-09T12:55:42;9.40;;;5.18;;
18899;SDS011;9582;52.018;6.306;2023-07-09T12:58:14;7.10;;;4.55;;
18899;SDS011;9582;52.018;6.306;2023-07-09T13:00:47;9.40;;;4.28;;
18899;SDS011;9582;52.018;6.306;2023-07-09T13:03:17;5.13;;;3.88;;
18899;SDS011;9582;52.018;6.306;2023-07-09T13:05:52;5.40;;;3.92;;
18899;SDS011;9582;52.018;6.306;2023-07-09T13:08:20;4.55;;;3.85;;
18899;SDS011;9582;52.018;6.306;2023-07-09T13:10:48;6.90;;;4.20;;
18899;SDS011;9582;52.018;6.306;2023-07-09T13:13:16;4.28;;;3.72;;
18899;SDS011;9582;52.018;6.306;2023-07-09T13:15:47;6.68;;;4.10;;
18899;SDS011;9582;52.018;6.306;2023-07-09T13:18:15;9.30;;;4.43;;
18899;SDS011;9582;52.018;6.306;2023-07-09T13:20:42;7.30;;;4.22;;
18899;SDS011;9582;52.018;6.306;2023-07-09T13:23:13;5.25;;;4.32;;
18899;SDS011;9582;52.018;6.306;2023-07-09T13:25:42;6.10;;;4.10;;
18899;SDS011;9582;52.018;6.306;2023-07-09T13:28:12;7.72;;;4.55;;
18899;SDS011;9582;52.018;6.306;2023-07-09T13:30:41;9.65;;;4.40;;
18899;SDS011;9582;52.018;6.306;2023-07-09T13:33:08;8.43;;;4.35;;
18899;SDS011;9582;52.018;6.306;2023-07-09T13:35:36;6.22;;;4.50;;
18899;SDS011;9582;52.018;6.306;2023-07-09T13:38:05;6.78;;;4.57;;
18899;SDS011;9582;52.018;6.306;2023-07-09T13:40:38;18.30;;;4.78;;
18899;SDS011;9582;52.018;6.306;2023-07-09T13:43:07;8.55;;;4.50;;
18899;SDS011;9582;52.018;6.306;2023-07-09T13:45:38;5.53;;;4.10;;
18899;SDS011;9582;52.018;6.306;2023-07-09T13:48:07;5.90;;;4.30;;
18899;SDS011;9582;52.018;6.306;2023-07-09T13:50:41;4.70;;;4.10;;
18899;SDS011;9582;52.018;6.306;2023-07-09T13:53:10;5.30;;;4.40;;
18899;SDS011;9582;52.018;6.306;2023-07-09T13:55:39;5.28;;;4.55;;
18899;SDS011;9582;52.018;6.306;2023-07-09T13:58:07;5.63;;;4.70;;
18899;SDS011;9582;52.018;6.306;2023-07-09T14:00:34;5.57;;;5.07;;
18899;SDS011;9582;52.018;6.306;2023-07-09T14:03:02;5.95;;;4.80;;
18899;SDS011;9582;52.018;6.306;2023-07-09T14:05:29;9.50;;;4.82;;
18899;SDS011;9582;52.018;6.306;2023-07-09T14:07:55;8.60;;;5.05;;
18899;SDS011;9582;52.018;6.306;2023-07-09T14:10:22;8.30;;;4.70;;
18899;SDS011;9582;52.018;6.306;2023-07-09T14:12:48;8.63;;;4.32;;
18899;SDS011;9582;52.018;6.306;2023-07-09T14:15:16;5.32;;;4.50;;
18899;SDS011;9582;52.018;6.306;2023-07-09T14:17:44;7.90;;;5.00;;
18899;SDS011;9582;52.018;6.306;2023-07-09T14:20:13;7.72;;;4.90;;
18899;SDS011;9582;52.018;6.306;2023-07-09T14:22:41;7.35;;;4.65;;
18899;SDS011;9582;52.018;6.306;2023-07-09T14:25:14;7.78;;;5.20;;
18899;SDS011;9582;52.018;6.306;2023-07-09T14:27:44;8.43;;;5.10;;
18899;SDS011;9582;52.018;6.306;2023-07-09T14:30:13;6.15;;;4.75;;
18899;SDS011;9582;52.018;6.306;2023-07-09T14:32:41;5.78;;;5.15;;
18899;SDS011;9582;52.018;6.306;2023-07-09T14:35:11;8.65;;;5.07;;
18899;SDS011;9582;52.018;6.306;2023-07-09T14:37:41;5.85;;;5.13;;
18899;SDS011;9582;52.018;6.306;2023-07-09T14:40:08;6.07;;;5.32;;
18899;SDS011;9582;52.018;6.306;2023-07-09T14:42:35;8.02;;;5.40;;
18899;SDS011;9582;52.018;6.306;2023-07-09T14:45:03;6.28;;;5.65;;
18899;SDS011;9582;52.018;6.306;2023-07-09T14:47:30;9.30;;;5.82;;
18899;SDS011;9582;52.018;6.306;2023-07-09T14:49:57;10.95;;;6.30;;
18899;SDS011;9582;52.018;6.306;2023-07-09T14:52:24;14.65;;;7.05;;
18899;SDS011;9582;52.018;6.306;2023-07-09T14:54:51;8.63;;;7.60;;
18899;SDS011;9582;52.018;6.306;2023-07-09T14:57:18;10.10;;;7.70;;
18899;SDS011;9582;52.018;6.306;2023-07-09T14:59:47;11.32;;;7.53;;